createdAt,value
2018-05-25T00:02:12.614Z,100.00
2018-05-25T00:04:40.843Z,100.00
2018-05-25T00:07:09.076Z,100.00
2018-05-25T00:09:37.334Z,100.00
2018-05-25T00:12:05.567Z,100.00
2018-05-25T00:14:33.807Z,100.00
2018-05-25T00:17:02.063Z,100.00
2018-05-25T00:19:30.306Z,100.00
2018-05-25T00:21:59.307Z,100.00
2018-05-25T00:24:27.569Z,100.00
2018-05-25T00:26:55.794Z,100.00
2018-05-25T00:29:24.031Z,100.00
2018-05-25T00:31:53.054Z,100.00
2018-05-25T00:34:21.296Z,100.00
2018-05-25T00:36:49.522Z,100.00
2018-05-25T00:39:17.819Z,100.00
2018-05-25T00:41:46.060Z,100.00
2018-05-25T00:44:14.292Z,100.00
2018-05-25T00:46:42.544Z,100.00
2018-05-25T00:49:10.776Z,100.00
2018-05-25T00:51:39.955Z,100.00
2018-05-25T00:54:09.018Z,100.00
2018-05-25T00:56:37.260Z,100.00
2018-05-25T00:59:05.497Z,100.00
2018-05-25T01:01:33.768Z,100.00
2018-05-25T01:04:01.995Z,100.00
2018-05-25T01:06:30.227Z,100.00
2018-05-25T01:08:59.255Z,100.00
2018-05-25T01:11:27.489Z,100.00
2018-05-25T01:13:55.731Z,100.00
2018-05-25T01:16:23.983Z,100.00
2018-05-25T01:18:52.216Z,100.00
2018-05-25T01:21:20.219Z,100.00
2018-05-25T01:23:48.487Z,100.00
2018-05-25T01:26:16.904Z,100.00
2018-05-25T01:28:45.147Z,100.00
2018-05-25T01:31:13.394Z,100.00
2018-05-25T01:33:41.621Z,100.00
2018-05-25T01:36:09.871Z,100.00
2018-05-25T01:38:38.111Z,100.00
2018-05-25T01:41:06.338Z,100.00
2018-05-25T01:43:34.612Z,100.00
2018-05-25T01:46:02.850Z,100.00
2018-05-25T01:48:31.834Z,100.00
2018-05-25T01:51:00.085Z,100.00
2018-05-25T01:53:28.316Z,100.00
2018-05-25T01:55:57.310Z,100.00
2018-05-25T01:58:25.487Z,100.00
2018-05-25T02:00:53.715Z,100.00
2018-05-25T02:03:21.949Z,100.00
2018-05-25T02:05:50.212Z,100.00
2018-05-25T02:08:18.447Z,100.00
2018-05-25T02:10:46.683Z,100.00
2018-05-25T02:13:14.935Z,100.00
2018-05-25T02:15:43.927Z,100.00
2018-05-25T02:18:12.155Z,100.00
2018-05-25T02:20:40.403Z,100.00
2018-05-25T02:23:08.637Z,100.00
2018-05-25T02:25:36.875Z,100.00
2018-05-25T02:28:05.147Z,100.00
2018-05-25T02:30:33.379Z,100.00
2018-05-25T02:33:07.368Z,100.00
2018-05-25T02:35:35.599Z,100.00
2018-05-25T02:38:03.828Z,100.00
2018-05-25T02:40:32.097Z,100.00
2018-05-25T02:43:00.333Z,100.00
2018-05-25T02:45:28.556Z,100.00
2018-05-25T02:47:56.831Z,100.00
2018-05-25T02:50:25.070Z,100.00
2018-05-25T02:52:53.299Z,100.00
2018-05-25T02:55:22.328Z,100.00
2018-05-25T02:57:50.571Z,100.00
2018-05-25T03:00:18.807Z,100.00
2018-05-25T03:02:47.055Z,100.00
2018-05-25T03:05:15.295Z,100.00
2018-05-25T03:07:44.301Z,100.00
2018-05-25T03:10:12.551Z,100.00
2018-05-25T03:12:40.791Z,100.00
2018-05-25T03:15:09.027Z,100.00
2018-05-25T03:17:38.040Z,100.00
2018-05-25T03:20:06.275Z,100.00
2018-05-25T03:22:34.571Z,100.00
2018-05-25T03:25:02.811Z,100.00
2018-05-25T03:27:31.043Z,100.00
2018-05-25T03:29:59.315Z,100.00
2018-05-25T03:32:27.552Z,100.00
2018-05-25T03:34:55.787Z,100.00
2018-05-25T03:37:24.031Z,100.00
2018-05-25T03:39:52.263Z,100.00
2018-05-25T03:42:20.503Z,100.00
2018-05-25T03:44:48.732Z,100.00
2018-05-25T03:47:17.154Z,100.00
2018-05-25T03:49:45.389Z,100.00
2018-05-25T03:52:13.620Z,100.00
2018-05-25T03:54:41.874Z,100.00
2018-05-25T03:57:10.115Z,100.00
2018-05-25T03:59:55.883Z,100.00
2018-05-25T04:02:24.118Z,100.00
2018-05-25T04:04:52.363Z,100.00
2018-05-25T04:07:20.587Z,100.00
2018-05-25T04:09:48.827Z,100.00
2018-05-25T04:12:17.062Z,100.00
2018-05-25T04:14:45.327Z,100.00
2018-05-25T04:17:13.608Z,100.00
2018-05-25T04:19:42.555Z,100.00
2018-05-25T04:22:10.811Z,100.00
2018-05-25T04:24:39.047Z,100.00
2018-05-25T04:27:07.288Z,100.00
2018-05-25T04:29:35.559Z,100.00
2018-05-25T04:32:03.785Z,100.00
2018-05-25T04:34:32.023Z,100.00
2018-05-25T04:37:00.309Z,100.00
2018-05-25T04:39:28.553Z,100.00
2018-05-25T04:41:56.797Z,100.00
2018-05-25T04:44:25.055Z,99.55
2018-05-25T04:46:53.275Z,97.97
2018-05-25T04:49:22.271Z,97.33
2018-05-25T04:51:50.534Z,96.25
2018-05-25T04:54:18.762Z,95.74
2018-05-25T04:56:46.982Z,93.09
2018-05-25T04:59:15.215Z,93.77
2018-05-25T05:01:43.444Z,92.04
2018-05-25T05:04:11.856Z,90.99
2018-05-25T05:06:40.080Z,91.67
2018-05-25T05:09:08.295Z,90.73
2018-05-25T05:11:36.588Z,87.16
2018-05-25T05:14:04.768Z,85.11
2018-05-25T05:16:32.990Z,84.62
2018-05-25T05:19:01.252Z,87.18
2018-05-25T05:21:29.467Z,84.05
2018-05-25T05:23:57.695Z,82.44
2018-05-25T05:26:25.939Z,82.35
2018-05-25T05:28:54.166Z,80.66
2018-05-25T05:31:22.388Z,76.75
2018-05-25T05:33:50.654Z,75.28
2018-05-25T05:36:18.878Z,75.49
2018-05-25T05:38:47.107Z,71.14
2018-05-25T05:41:15.363Z,69.99
2018-05-25T05:43:44.355Z,69.03
2018-05-25T05:46:12.575Z,61.11
2018-05-25T05:48:40.830Z,65.13
2018-05-25T05:51:09.050Z,64.01
2018-05-25T05:53:37.271Z,62.88
2018-05-25T05:56:05.540Z,64.97
2018-05-25T05:58:33.759Z,64.82
2018-05-25T06:01:01.983Z,63.58
2018-05-25T06:03:30.979Z,61.62
2018-05-25T06:05:59.197Z,60.89
2018-05-25T06:08:27.430Z,59.88
2018-05-25T06:10:56.411Z,60.92
2018-05-25T06:13:24.655Z,62.27
2018-05-25T06:15:52.887Z,63.53
2018-05-25T06:18:21.879Z,63.47
2018-05-25T06:20:50.198Z,56.30
2018-05-25T06:23:18.422Z,57.16
2018-05-25T06:25:46.643Z,58.63
2018-05-25T06:28:14.900Z,54.39
2018-05-25T06:30:43.124Z,55.08
2018-05-25T06:33:11.343Z,62.13
2018-05-25T06:35:40.362Z,60.48
2018-05-25T06:38:08.587Z,56.84
2018-05-25T06:40:36.807Z,54.28
2018-05-25T06:43:05.062Z,55.09
2018-05-25T06:45:33.283Z,54.65
2018-05-25T06:48:01.507Z,52.49
2018-05-25T06:50:30.523Z,48.50
2018-05-25T06:52:58.742Z,45.27
2018-05-25T06:55:26.963Z,45.92
2018-05-25T06:57:55.232Z,46.97
2018-05-25T07:00:23.438Z,47.23
2018-05-25T07:02:51.658Z,46.11
2018-05-25T07:05:19.930Z,43.94
2018-05-25T07:07:48.151Z,40.63
2018-05-25T07:10:16.372Z,38.90
2018-05-25T07:12:44.636Z,37.38
2018-05-25T07:15:12.863Z,39.43
2018-05-25T07:17:41.078Z,40.00
2018-05-25T07:20:09.324Z,38.12
2018-05-25T07:22:37.542Z,37.93
2018-05-25T07:25:05.767Z,41.90
2018-05-25T07:27:34.027Z,44.41
2018-05-25T07:30:02.248Z,42.71
2018-05-25T07:32:30.464Z,42.64
2018-05-25T07:34:58.723Z,38.90
2018-05-25T07:37:26.951Z,36.29
2018-05-25T07:39:55.175Z,37.09
2018-05-25T07:42:23.415Z,37.37
2018-05-25T07:44:51.636Z,36.91
2018-05-25T07:47:19.863Z,33.26
2018-05-25T07:49:48.106Z,34.72
2018-05-25T07:52:16.319Z,33.54
2018-05-25T07:54:45.309Z,35.12
2018-05-25T07:57:13.551Z,37.03
2018-05-25T07:59:41.764Z,35.62
2018-05-25T08:02:10.004Z,36.06
2018-05-25T08:04:39.019Z,36.21
2018-05-25T08:07:07.243Z,33.30
2018-05-25T08:09:35.476Z,34.12
2018-05-25T08:12:03.742Z,30.96
2018-05-25T08:14:32.738Z,31.51
2018-05-25T08:17:00.954Z,32.94
2018-05-25T08:19:29.179Z,33.15
2018-05-25T08:21:58.169Z,33.62
2018-05-25T08:24:26.403Z,34.24
2018-05-25T08:26:54.667Z,29.50
2018-05-25T08:29:22.890Z,31.63
2018-05-25T08:31:51.874Z,32.43
2018-05-25T08:34:20.131Z,33.91
2018-05-25T08:36:48.355Z,34.47
2018-05-25T08:39:16.578Z,36.37
2018-05-25T08:41:44.835Z,32.49
2018-05-25T08:44:13.051Z,31.05
2018-05-25T08:46:41.267Z,27.78
2018-05-25T08:49:09.531Z,27.08
2018-05-25T08:51:37.746Z,28.16
2018-05-25T08:54:05.967Z,26.03
2018-05-25T08:56:34.212Z,23.59
2018-05-25T08:59:02.427Z,23.09
2018-05-25T09:01:31.429Z,22.92
2018-05-25T09:03:59.647Z,23.58
2018-05-25T09:06:27.869Z,24.69
2018-05-25T09:08:56.850Z,24.09
2018-05-25T09:11:25.097Z,27.58
2018-05-25T09:13:53.314Z,27.69
2018-05-25T09:16:22.300Z,24.20
2018-05-25T09:18:50.590Z,23.70
2018-05-25T09:21:18.775Z,23.03
2018-05-25T09:23:46.993Z,22.86
2018-05-25T09:26:15.227Z,22.74
2018-05-25T09:28:43.448Z,22.36
2018-05-25T09:31:11.679Z,22.68
2018-05-25T09:33:39.930Z,22.93
2018-05-25T09:36:08.911Z,20.94
2018-05-25T09:38:37.135Z,20.88
2018-05-25T09:41:05.390Z,22.15
2018-05-25T09:43:33.611Z,19.97
2018-05-25T09:46:01.836Z,20.47
2018-05-25T09:48:30.078Z,20.20
2018-05-25T09:50:58.299Z,22.27
2018-05-25T09:53:26.518Z,21.48
2018-05-25T09:55:54.751Z,24.54
2018-05-25T09:58:22.971Z,21.74
2018-05-25T10:00:51.191Z,21.37
2018-05-25T10:03:19.442Z,22.60
2018-05-25T10:05:47.664Z,20.58
2018-05-25T10:08:15.894Z,20.45
2018-05-25T10:10:44.158Z,20.62
2018-05-25T10:13:12.370Z,20.33
2018-05-25T10:15:40.599Z,18.46
2018-05-25T10:18:08.863Z,17.93
2018-05-25T10:20:37.079Z,19.34
2018-05-25T10:23:05.295Z,18.25
2018-05-25T10:25:33.546Z,17.99
2018-05-25T10:28:01.771Z,16.76
2018-05-25T10:30:29.987Z,15.65
2018-05-25T10:32:58.219Z,17.41
2018-05-25T10:35:26.440Z,17.66
2018-05-25T10:37:55.464Z,15.36
2018-05-25T10:40:23.675Z,16.40
2018-05-25T10:42:51.899Z,20.65
2018-05-25T10:45:20.165Z,21.89
2018-05-25T10:47:49.159Z,18.31
2018-05-25T10:50:17.375Z,19.96
2018-05-25T10:52:45.652Z,24.99
2018-05-25T10:55:13.863Z,29.47
2018-05-25T10:57:42.092Z,33.32
2018-05-25T11:00:10.398Z,31.06
2018-05-25T11:02:38.632Z,31.42
2018-05-25T11:05:06.857Z,25.64
2018-05-25T11:10:32.804Z,20.66
2018-05-25T11:13:00.979Z,18.50
2018-05-25T11:15:29.987Z,16.87
2018-05-25T11:17:58.243Z,17.59
2018-05-25T11:20:26.484Z,17.97
2018-05-25T11:22:54.726Z,17.10
2018-05-25T11:25:22.983Z,15.88
2018-05-25T11:27:51.214Z,21.86
2018-05-25T11:30:19.471Z,31.24
2018-05-25T11:32:47.731Z,30.54
2018-05-25T11:35:16.735Z,25.42
2018-05-25T11:37:44.963Z,21.90
2018-05-25T11:40:13.226Z,21.05
2018-05-25T11:42:41.490Z,19.07
2018-05-25T11:45:09.713Z,19.63
2018-05-25T11:47:37.978Z,21.14
2018-05-25T11:50:06.203Z,20.87
2018-05-25T11:52:34.542Z,21.75
2018-05-25T11:55:02.815Z,20.04
2018-05-25T11:57:31.073Z,18.68
2018-05-25T11:59:59.243Z,18.92
2018-05-25T12:02:27.504Z,20.73
2018-05-25T12:04:55.725Z,19.15
2018-05-25T12:07:23.943Z,18.98
2018-05-25T12:09:52.559Z,17.27
2018-05-25T12:12:20.779Z,14.61
2018-05-25T12:14:49.762Z,17.08
2018-05-25T12:17:18.015Z,17.34
2018-05-25T12:19:46.240Z,20.62
2018-05-25T12:22:15.223Z,20.03
2018-05-25T12:24:43.467Z,22.29
2018-05-25T12:27:11.686Z,21.49
2018-05-25T12:29:39.909Z,22.28
2018-05-25T12:32:08.471Z,19.59
2018-05-25T12:34:36.695Z,17.21
2018-05-25T12:37:05.678Z,16.34
2018-05-25T12:39:33.919Z,16.75
2018-05-25T12:42:02.143Z,18.66
2018-05-25T12:44:37.722Z,18.84
2018-05-25T12:47:05.937Z,20.14
2018-05-25T12:49:34.161Z,17.55
2018-05-25T12:52:02.615Z,16.61
2018-05-25T12:54:31.600Z,15.27
2018-05-25T12:56:59.819Z,15.40
2018-05-25T12:59:28.075Z,16.95
2018-05-25T13:01:57.079Z,17.84
2018-05-25T13:04:25.298Z,19.83
2018-05-25T13:06:53.560Z,21.07
2018-05-25T13:09:21.788Z,17.17
2018-05-25T13:11:50.768Z,16.39
2018-05-25T13:14:19.029Z,17.26
2018-05-25T13:16:47.243Z,19.25
2018-05-25T13:19:15.455Z,20.28
2018-05-25T13:21:43.892Z,26.39
2018-05-25T13:24:12.074Z,27.45
2018-05-25T13:26:41.063Z,22.87
2018-05-25T13:29:09.294Z,19.98
2018-05-25T13:31:37.524Z,19.14
2018-05-25T13:34:05.738Z,19.50
2018-05-25T13:36:33.976Z,19.11
2018-05-25T13:39:02.200Z,21.08
2018-05-25T13:41:30.410Z,24.77
2018-05-25T13:43:59.431Z,22.17
2018-05-25T13:46:27.648Z,20.49
2018-05-25T13:48:55.867Z,19.47
2018-05-25T13:51:24.124Z,21.45
2018-05-25T13:53:53.116Z,25.06
2018-05-25T13:56:21.337Z,24.31
2018-05-25T13:58:49.588Z,24.33
2018-05-25T14:01:17.798Z,26.25
2018-05-25T14:03:46.014Z,24.17
2018-05-25T14:06:14.242Z,26.36
2018-05-25T14:08:42.479Z,22.54
2018-05-25T14:11:11.499Z,22.10
2018-05-25T14:13:40.742Z,21.89
2018-05-25T14:16:08.964Z,21.59
2018-05-25T14:18:37.224Z,24.69
2018-05-25T14:21:06.203Z,23.65
2018-05-25T14:23:34.427Z,23.31
2018-05-25T14:26:02.979Z,23.82
2018-05-25T14:28:31.197Z,23.55
2018-05-25T14:30:59.426Z,25.49
2018-05-25T14:33:28.418Z,24.19
2018-05-25T14:35:56.639Z,24.96
2018-05-25T14:38:24.864Z,28.50
2018-05-25T14:40:53.886Z,29.71
2018-05-25T14:43:22.103Z,28.99
2018-05-25T14:45:50.332Z,29.64
2018-05-25T14:48:18.589Z,30.55
2018-05-25T14:50:47.570Z,29.16
2018-05-25T14:53:15.791Z,30.74
2018-05-25T14:55:44.023Z,27.60
2018-05-25T14:58:12.249Z,24.31
2018-05-25T15:00:40.770Z,25.56
2018-05-25T15:03:08.983Z,24.65
2018-05-25T15:05:37.203Z,23.51
2018-05-25T15:08:05.464Z,22.47
2018-05-25T15:10:33.674Z,21.88
2018-05-25T15:13:01.904Z,22.70
2018-05-25T15:15:30.135Z,24.79
2018-05-25T15:17:58.351Z,30.70
2018-05-25T15:20:26.574Z,31.78
2018-05-25T15:22:54.795Z,30.95
2018-05-25T15:25:23.046Z,28.10
2018-05-25T15:27:51.263Z,25.02
2018-05-25T15:30:19.479Z,24.85
2018-05-25T15:32:47.732Z,25.37
2018-05-25T15:35:15.939Z,26.29
2018-05-25T15:37:44.175Z,26.95
2018-05-25T15:40:12.418Z,26.33
2018-05-25T15:42:40.637Z,28.04
2018-05-25T15:45:08.863Z,29.97
2018-05-25T15:47:37.110Z,30.07
2018-05-25T15:50:05.327Z,33.31
2018-05-25T15:52:33.636Z,33.95
2018-05-25T15:55:01.881Z,33.51
2018-05-25T15:57:30.096Z,32.07
2018-05-25T15:59:58.306Z,30.51
2018-05-25T16:02:26.600Z,31.24
2018-05-25T16:04:54.779Z,31.78
2018-05-25T16:07:22.995Z,34.04
2018-05-25T16:09:51.241Z,35.83
2018-05-25T16:12:19.458Z,37.41
2018-05-25T16:14:47.689Z,38.02
2018-05-25T16:17:15.947Z,39.47
2018-05-25T16:19:44.944Z,40.21
2018-05-25T16:22:13.147Z,40.61
2018-05-25T16:24:41.398Z,40.34
2018-05-25T16:27:09.623Z,40.77
2018-05-25T16:29:37.844Z,40.82
2018-05-25T16:32:06.099Z,40.83
2018-05-25T16:34:34.327Z,40.15
2018-05-25T16:37:02.539Z,40.77
2018-05-25T16:39:30.823Z,40.64
2018-05-25T16:41:59.049Z,40.60
2018-05-25T16:44:27.289Z,41.27
2018-05-25T16:46:55.542Z,40.50
2018-05-25T16:49:23.767Z,40.08
2018-05-25T16:51:51.999Z,38.73
2018-05-25T16:54:20.259Z,38.14
2018-05-25T16:56:48.480Z,36.48
2018-05-25T16:59:16.703Z,35.76
2018-05-25T17:01:44.939Z,36.12
2018-05-25T17:04:13.167Z,37.70
2018-05-25T17:06:41.392Z,36.87
2018-05-25T17:09:09.735Z,36.62
2018-05-25T17:11:37.955Z,36.64
2018-05-25T17:14:06.168Z,37.04
2018-05-25T17:16:34.427Z,36.23
2018-05-25T17:19:02.651Z,37.22
2018-05-25T17:21:31.634Z,37.43
2018-05-25T17:23:59.907Z,38.66
2018-05-25T17:26:28.115Z,40.61
2018-05-25T17:28:56.339Z,40.37
2018-05-25T17:31:24.645Z,41.48
2018-05-25T17:33:52.814Z,41.39
2018-05-25T17:36:21.039Z,39.85
2018-05-25T17:38:49.288Z,39.04
2018-05-25T17:41:17.519Z,39.34
2018-05-25T17:43:45.734Z,39.72
2018-05-25T17:46:13.987Z,39.68
2018-05-25T17:48:42.203Z,40.30
2018-05-25T17:51:10.427Z,41.09
2018-05-25T17:53:38.679Z,42.76
2018-05-25T17:56:06.907Z,43.04
2018-05-25T17:58:35.122Z,44.38
2018-05-25T18:01:03.375Z,44.84
2018-05-25T18:03:31.587Z,45.41
2018-05-25T18:05:59.811Z,45.27
2018-05-25T18:08:28.066Z,45.86
2018-05-25T18:10:56.291Z,47.13
2018-05-25T18:13:24.515Z,48.45
2018-05-25T18:15:52.770Z,49.29
2018-05-25T18:18:20.992Z,50.16
2018-05-25T18:20:49.207Z,50.85
2018-05-25T18:23:17.467Z,51.49
2018-05-25T18:25:45.688Z,51.38
2018-05-25T18:28:13.911Z,51.75
2018-05-25T18:30:42.147Z,52.59
2018-05-25T18:33:10.374Z,52.64
2018-05-25T18:35:38.599Z,53.36
2018-05-25T18:38:06.859Z,54.14
2018-05-25T18:40:35.081Z,54.48
2018-05-25T18:43:03.299Z,55.80
2018-05-25T18:45:31.559Z,56.35
2018-05-25T18:47:59.779Z,57.17
2018-05-25T18:50:27.999Z,58.65
2018-05-25T18:52:56.267Z,59.28
2018-05-25T18:55:24.496Z,58.55
2018-05-25T18:57:52.723Z,59.28
2018-05-25T19:00:20.975Z,60.70
2018-05-25T19:02:49.963Z,61.73
2018-05-25T19:05:18.183Z,61.73
2018-05-25T19:07:46.440Z,62.13
2018-05-25T19:10:14.660Z,61.59
2018-05-25T19:12:42.880Z,60.25
2018-05-25T19:15:11.139Z,60.27
2018-05-25T19:17:39.366Z,59.89
2018-05-25T19:20:07.588Z,60.51
2018-05-25T19:22:35.831Z,61.65
2018-05-25T19:25:04.061Z,62.05
2018-05-25T19:27:32.275Z,61.29
2018-05-25T19:30:00.539Z,60.88
2018-05-25T19:32:28.778Z,61.61
2018-05-25T19:34:56.981Z,61.75
2018-05-25T19:37:25.230Z,61.84
2018-05-25T19:39:53.454Z,62.06
2018-05-25T19:42:21.674Z,62.37
2018-05-25T19:44:50.714Z,61.82
2018-05-25T19:47:18.932Z,61.22
2018-05-25T19:49:47.151Z,61.25
2018-05-25T19:52:15.390Z,61.21
2018-05-25T19:54:43.624Z,60.82
2018-05-25T19:57:11.844Z,61.28
2018-05-25T19:59:40.075Z,61.60
2018-05-25T20:02:08.304Z,61.58
2018-05-25T20:04:37.299Z,62.17
2018-05-25T20:07:05.523Z,62.64
2018-05-25T20:09:33.836Z,62.96
2018-05-25T20:12:02.016Z,63.02
2018-05-25T20:14:30.243Z,63.26
2018-05-25T20:16:58.512Z,63.77
2018-05-25T20:19:26.737Z,64.15
2018-05-25T20:21:54.948Z,64.37
2018-05-25T20:24:23.218Z,64.87
2018-05-25T20:26:52.201Z,65.55
2018-05-25T20:29:20.436Z,65.96
2018-05-25T20:31:48.679Z,66.54
2018-05-25T20:34:16.914Z,67.06
2018-05-25T20:36:45.135Z,67.07
2018-05-25T20:39:13.366Z,67.41
2018-05-25T20:41:41.587Z,67.09
2018-05-25T20:44:10.580Z,67.57
2018-05-25T20:46:38.810Z,68.08
2018-05-25T20:49:07.031Z,68.18
2018-05-25T20:51:35.255Z,68.79
2018-05-25T20:54:03.483Z,68.41
2018-05-25T20:56:31.699Z,69.09
2018-05-25T20:58:59.931Z,69.31
2018-05-25T21:01:28.147Z,69.49
2018-05-25T21:03:56.388Z,69.57
2018-05-25T21:06:25.367Z,69.99
2018-05-25T21:08:53.607Z,69.82
2018-05-25T21:11:21.859Z,70.45
2018-05-25T21:13:50.083Z,70.57
2018-05-25T21:16:18.308Z,70.67
2018-05-25T21:18:46.567Z,70.60
2018-05-25T21:21:14.783Z,71.50
2018-05-25T21:23:43.007Z,71.65
2018-05-25T21:26:11.259Z,71.31
2018-05-25T21:28:39.474Z,71.58
2018-05-25T21:31:07.707Z,71.89
2018-05-25T21:33:36.719Z,71.82
2018-05-25T21:36:04.935Z,72.06
2018-05-25T21:38:33.158Z,72.35
2018-05-25T21:41:02.164Z,72.36
2018-05-25T21:43:30.383Z,72.70
2018-05-25T21:45:58.598Z,73.23
2018-05-25T21:48:27.648Z,73.68
2018-05-25T21:50:55.879Z,74.16
2018-05-25T21:53:24.094Z,74.67
2018-05-25T21:55:52.335Z,74.80
2018-05-25T21:58:20.559Z,74.95
2018-05-25T22:00:48.770Z,75.19
2018-05-25T22:03:17.039Z,75.43
2018-05-25T22:05:45.262Z,75.46
2018-05-25T22:08:13.491Z,75.07
2018-05-25T22:10:42.511Z,74.56
2018-05-25T22:13:11.503Z,75.00
2018-05-25T22:15:39.719Z,75.67
2018-05-25T22:18:08.163Z,76.37
2018-05-25T22:20:36.385Z,77.02
2018-05-25T22:23:04.603Z,77.44
2018-05-25T22:25:32.971Z,77.62
2018-05-25T22:28:01.196Z,77.98
2018-05-25T22:30:29.429Z,78.47
2018-05-25T22:32:58.426Z,79.23
2018-05-25T22:35:26.644Z,79.07
2018-05-25T22:37:54.894Z,79.41
2018-05-25T22:40:23.156Z,80.06
2018-05-25T22:43:08.815Z,80.75
2018-05-25T22:45:55.360Z,81.42
2018-05-25T22:48:41.267Z,81.24
2018-05-25T22:51:27.123Z,81.32
2018-05-25T22:54:00.075Z,81.86
2018-05-25T22:56:28.355Z,82.05
2018-05-25T22:58:56.536Z,82.76
2018-05-25T23:01:24.759Z,82.54
2018-05-25T23:03:53.015Z,83.38
2018-05-25T23:06:21.235Z,83.61
2018-05-25T23:08:49.463Z,84.36
2018-05-25T23:11:17.699Z,85.30
2018-05-25T23:13:45.919Z,85.69
2018-05-25T23:16:14.144Z,86.28
2018-05-25T23:18:42.414Z,86.24
2018-05-25T23:21:10.627Z,87.12
2018-05-25T23:23:38.852Z,87.70
2018-05-25T23:26:07.107Z,87.40
2018-05-25T23:28:35.336Z,87.85
2018-05-25T23:31:03.569Z,87.51
2018-05-25T23:33:31.808Z,87.15
2018-05-25T23:36:00.031Z,86.80
2018-05-25T23:38:28.260Z,87.09
2018-05-25T23:40:57.264Z,88.22
2018-05-25T23:43:25.492Z,88.35
2018-05-25T23:45:53.711Z,88.54
2018-05-25T23:48:22.733Z,88.79
2018-05-25T23:50:50.954Z,88.85
2018-05-25T23:53:19.171Z,89.90
2018-05-25T23:55:47.411Z,90.28
2018-05-25T23:58:15.627Z,90.17
